North Hollywood, CA (91618)

11:53 AM PDT on July 27, 2016 (GMT -0700)
Laurel Canyon - Kirkwood Bowl | | Change Station

Elev 876 ft 34.11 °N, 118.37 °W | Updated 2 minutes ago

Clear
Clear
89.9 °F
Feels Like 91 °F
N
0.0
Wind Variable Wind from SE
Gusts 0.0 mph

Today
High -- | Low -- °F
--% Chance of Precip.
Yesterday
High -- | Low -- °F
Precip. -- in
Pressure 29.89 in
Visibility 10.0 miles
Clouds Clear
Heat Index 91 °F
Dew Point 63 °F
Humidity 41%
Rainfall 0.00 in
Snow Depth Not available.
6:01 AM 7:57 PM
Last Quarter, 40% visible
METAR KBUR 271753Z 17006KT 10SM CLR 32/11 A2993 RMK AO2 SLP121 T03170106 10317 20222 51004
Pressure 29.89 in
Visibility 10.0 miles
Clouds Clear
Heat Index 91 °F
Dew Point 63 °F
Humidity 41%
Rainfall 0.00 in
Snow Depth Not available.
6:01 AM 7:57 PM
Last Quarter, 40% visible
METAR KBUR 271753Z 17006KT 10SM CLR 32/11 A2993 RMK AO2 SLP121 T03170106 10317 20222 51004

10-Day Weather Forecast

Almanac

Astronomy

Jul. 27, 2016 Rise Set
Actual Time
Civil Twilight
Nautical Twilight
Astronomical Twilight
Moon
Length of Visible Light
Length of Day
Tomorrow will be .
, % of the Moon is Illuminated

Today's Extremes

State Highs State Lows

Community

WunderPhotos

Upload Photos

1,927,897 photos uploaded!

WunderBlog® & News

Nearby

Air Quality

  Air Quality AQ Index Pollutant
Not available.

Snow Depth

Station Depth Elevation

Earthquake Activity

City Distance Mag. Time & Date
Minimum magnitude displayed is 2.5.

Coastal Water Temperatures

Place Temperature

Stations

Nearby Weather Stations

Station Location Temp. Windchill Dew Point Humidity Wind Precip. Elev Updated Type
                   

Watches & Warnings

There are currently no watches in effect.